Time;durP1;ratioP1;P1;durP2;ratioP2;P2;SDS_P1;SDS_P2;PMS_P1;PMS_P2;Temp;Humidity;BMP_temperature;BMP_pressure;BME280_temperature;BME280_humidity;BME280_pressure;Samples;Min_cycle;Max_cycle;Signal;HPM_P1;HPM_P2
2021/01/22 00:00:46;;;;;;;1999.90;999.90;;;;;;;7.61;71.74;96979.22;4942888;28;20066;-66
2021/01/22 00:03:12;;;;;;;1999.90;999.90;;;;;;;7.38;72.63;96971.34;4945970;28;20098;-66
2021/01/22 00:05:38;;;;;;;1999.90;999.90;;;;;;;7.18;73.22;96983.97;4938714;29;20063;-66
2021/01/22 00:08:05;;;;;;;1999.90;999.90;;;;;;;7.25;72.69;96977.13;4946783;28;20051;-67
2021/01/22 00:14:18;;;;;;;1999.90;999.90;;;;;;;7.44;71.71;96976.63;4934602;29;20511;-66
2021/01/22 00:16:44;;;;;;;1999.90;999.90;;;;;;;7.43;71.77;96964.00;4941114;29;20427;-66
2021/01/22 00:19:10;;;;;;;1999.90;999.90;;;;;;;7.64;71.70;96964.78;4940843;29;20453;-66
2021/01/22 00:21:37;;;;;;;1999.90;999.90;;;;;;;7.73;70.77;96950.94;4948279;28;20047;-66
2021/01/22 00:24:04;;;;;;;1999.90;999.90;;;;;;;7.87;70.54;96950.59;4951816;28;20064;-66
2021/01/22 00:26:30;;;;;;;1999.90;999.90;;;;;;;7.92;70.08;96939.38;4933568;29;20062;-67
2021/01/22 00:28:56;;;;;;;1999.90;999.90;;;;;;;7.91;69.79;96940.53;4946464;29;20151;-64
2021/01/22 00:31:23;;;;;;;1999.90;999.90;;;;;;;7.91;70.15;96943.28;4939921;29;20118;-66
2021/01/22 00:33:51;;;;;;;1999.90;999.90;;;;;;;8.20;69.12;96938.69;4936678;29;20527;-67
2021/01/22 00:36:18;;;;;;;1999.90;999.90;;;;;;;8.01;69.72;96944.75;4944088;29;20162;-66
2021/01/22 00:38:44;;;;;;;1999.90;999.90;;;;;;;8.01;69.57;96933.75;4945549;29;20261;-67
2021/01/22 00:41:10;;;;;;;1999.90;999.90;;;;;;;7.68;70.72;96924.44;4942774;29;20508;-67
2021/01/22 00:43:37;;;;;;;1999.90;999.90;;;;;;;7.51;71.28;96922.66;4939645;29;20058;-66
2021/01/22 00:46:03;;;;;;;1999.90;999.90;;;;;;;7.75;70.55;96916.41;4945351;28;20055;-67
2021/01/22 00:48:36;;;;;;;1999.90;999.90;;;;;;;7.42;71.64;96907.41;4954341;28;20110;-67
2021/01/22 00:51:02;;;;;;;1999.90;999.90;;;;;;;7.28;72.20;96899.47;4948363;28;20527;-65
2021/01/22 00:53:29;;;;;;;1999.90;999.90;;;;;;;7.49;71.87;96896.63;4943930;28;20051;-65
2021/01/22 00:55:55;;;;;;;1999.90;999.90;;;;;;;7.34;72.34;96898.09;4943317;28;20047;-64
2021/01/22 00:58:21;;;;;;;1999.90;999.90;;;;;;;7.66;71.35;96898.41;4943419;28;20043;-64
2021/01/22 01:00:47;;;;;;;1999.90;999.90;;;;;;;7.50;71.96;96887.25;4944408;28;20098;-64
2021/01/22 01:03:13;;;;;;;1999.90;999.90;;;;;;;7.78;71.46;96876.41;4942053;29;20094;-64
2021/01/22 01:05:40;;;;;;;1999.90;999.90;;;;;;;7.58;71.97;96872.63;4943458;28;20067;-64
2021/01/22 01:08:06;;;;;;;1999.90;999.90;;;;;;;7.62;72.52;96870.75;4944875;28;20054;-64
2021/01/22 01:10:32;;;;;;;1999.90;999.90;;;;;;;7.68;72.57;96869.41;4943032;28;20051;-64
2021/01/22 01:12:58;;;;;;;1999.90;999.90;;;;;;;7.69;72.14;96862.75;4934135;28;20261;-64
2021/01/22 01:15:25;;;;;;;1999.90;999.90;;;;;;;7.84;71.82;96857.72;4939366;29;20051;-64
2021/01/22 01:17:51;;;;;;;1999.90;999.90;;;;;;;8.17;70.85;96854.03;4916697;29;20055;-64
2021/01/22 01:20:17;;;;;;;1999.90;999.90;;;;;;;8.09;70.91;96850.25;4944190;29;20488;-67
2021/01/22 01:22:43;;;;;;;1999.90;999.90;;;;;;;8.02;71.12;96850.81;4941318;29;20058;-64
2021/01/22 01:25:10;;;;;;;1999.90;999.90;;;;;;;8.57;69.58;96845.81;4942263;29;20051;-64
2021/01/22 01:27:37;;;;;;;1999.90;999.90;;;;;;;7.99;71.03;96840.50;4942799;29;20051;-65
2021/01/22 01:30:05;;;;;;;1999.90;999.90;;;;;;;7.98;71.66;96827.91;4941837;28;20051;-65
2021/01/22 01:32:31;;;;;;;1999.90;999.90;;;;;;;8.31;70.33;96817.84;4931688;28;20107;-64
2021/01/22 01:34:57;;;;;;;1999.90;999.90;;;;;;;8.06;71.49;96821.47;4939905;28;20051;-64
2021/01/22 01:37:24;;;;;;;1999.90;999.90;;;;;;;8.14;71.40;96810.66;4939114;28;20048;-64
2021/01/22 01:39:50;;;;;;;1999.90;999.90;;;;;;;8.29;70.31;96807.19;4938350;29;20059;-65
2021/01/22 01:42:16;;;;;;;1999.90;999.90;;;;;;;7.95;71.60;96798.31;4933118;29;20497;-64
2021/01/22 01:44:42;;;;;;;1999.90;999.90;;;;;;;7.57;72.84;96794.78;4938107;29;20062;-64
2021/01/22 01:47:08;;;;;;;1999.90;999.90;;;;;;;8.11;71.42;96798.38;4949711;28;20055;-64
2021/01/22 01:49:34;;;;;;;1999.90;999.90;;;;;;;8.36;70.21;96784.56;4940918;28;20058;-64
2021/01/22 01:52:01;;;;;;;1999.90;999.90;;;;;;;8.23;70.63;96790.13;4943421;28;20054;-65
2021/01/22 01:54:28;;;;;;;1999.90;999.90;;;;;;;7.98;70.96;96775.59;4944710;29;20496;-64
2021/01/22 01:56:54;;;;;;;1999.90;999.90;;;;;;;7.85;71.68;96777.56;4944230;28;20110;-64
2021/01/22 01:59:21;;;;;;;1999.90;999.90;;;;;;;8.17;70.55;96772.22;4942317;29;20102;-64
2021/01/22 02:01:48;;;;;;;1999.90;999.90;;;;;;;8.20;70.25;96765.22;4947881;28;20051;-64
2021/01/22 02:04:14;;;;;;;1999.90;999.90;;;;;;;8.02;71.13;96759.19;4939977;29;20078;-64
2021/01/22 02:06:40;;;;;;;1999.90;999.90;;;;;;;7.80;71.83;96757.72;4938307;29;20055;-65
2021/01/22 02:09:07;;;;;;;1999.90;999.90;;;;;;;7.99;71.44;96763.44;4939887;29;20381;-64
2021/01/22 02:11:33;;;;;;;1999.90;999.90;;;;;;;7.93;72.00;96756.56;4937970;29;20047;-65
2021/01/22 02:14:01;;;;;;;1999.90;999.90;;;;;;;7.95;71.65;96759.78;4942060;28;20088;-64
2021/01/22 02:16:28;;;;;;;1999.90;999.90;;;;;;;8.30;70.46;96759.22;4943853;29;20367;-65
2021/01/22 02:18:56;;;;;;;1999.90;999.90;;;;;;;8.16;70.57;96764.31;4939902;29;20062;-65
2021/01/22 02:21:29;;;;;;;1999.90;999.90;;;;;;;8.11;70.85;96765.34;4944667;29;20086;-64
2021/01/22 02:24:00;;;;;;;1999.90;999.90;;;;;;;8.16;70.92;96775.31;4946695;28;20066;-64
2021/01/22 02:26:29;;;;;;;1999.90;999.90;;;;;;;8.43;70.16;96785.56;4937525;29;20079;-64
2021/01/22 02:29:00;;;;;;;1999.90;999.90;;;;;;;8.42;70.13;96786.72;4942993;28;20066;-64
2021/01/22 02:31:29;;;;;;;1999.90;999.90;;;;;;;8.35;70.35;96774.69;4948900;28;20126;-64
2021/01/22 02:34:00;;;;;;;1999.90;999.90;;;;;;;8.13;70.69;96763.06;4959178;28;20534;-65
2021/01/22 02:36:29;;;;;;;1999.90;999.90;;;;;;;8.10;71.23;96761.81;4945567;29;20054;-64
2021/01/22 02:38:56;;;;;;;1999.90;999.90;;;;;;;8.10;71.11;96759.06;4950666;29;20137;-64
2021/01/22 02:41:22;;;;;;;1999.90;999.90;;;;;;;8.10;70.92;96756.31;4947064;29;20051;-64
2021/01/22 02:43:51;;;;;;;1999.90;999.90;;;;;;;8.18;71.16;96745.50;4947492;29;20054;-64
2021/01/22 02:46:18;;;;;;;1999.90;999.90;;;;;;;8.19;70.69;96742.41;4941624;29;20103;-64
2021/01/22 02:48:45;;;;;;;1999.90;999.90;;;;;;;8.25;70.34;96734.69;4949817;29;20300;-64
2021/01/22 02:51:12;;;;;;;1999.90;999.90;;;;;;;8.31;70.35;96737.97;4946477;29;20098;-64
2021/01/22 02:53:39;;;;;;;1999.90;999.90;;;;;;;8.26;70.63;96736.28;4946764;29;20452;-64
2021/01/22 02:56:42;;;;;;;1999.90;999.90;;;;;;;8.32;70.22;96739.59;4938591;29;20043;-65
2021/01/22 02:59:56;;;;;;;1999.90;999.90;;;;;;;8.15;70.78;96741.50;4944205;29;20047;-64
2021/01/22 03:02:28;;;;;;;1999.90;999.90;;;;;;;8.20;70.46;96737.69;4893073;29;20092;-64
2021/01/22 03:04:54;;;;;;;1999.90;999.90;;;;;;;8.19;70.15;96736.91;4927574;29;20054;-64
2021/01/22 03:07:33;;;;;;;1999.90;999.90;;;;;;;8.28;70.53;96734.78;4939304;29;20051;-64
2021/01/22 03:10:00;;;;;;;1999.90;999.90;;;;;;;7.93;71.59;96723.53;4942706;29;20453;-64
2021/01/22 03:12:30;;;;;;;1999.90;999.90;;;;;;;7.73;72.10;96728.84;4943895;29;20134;-64
2021/01/22 03:14:58;;;;;;;1999.90;999.90;;;;;;;7.69;73.12;96727.16;4942218;29;20416;-64
2021/01/22 03:17:24;;;;;;;1999.90;999.90;;;;;;;7.96;72.18;96717.34;4945509;29;20051;-64
2021/01/22 03:19:51;;;;;;;1999.90;999.90;;;;;;;8.05;71.91;96717.19;4945341;28;20093;-64
2021/01/22 03:22:17;;;;;;;1999.90;999.90;;;;;;;8.04;71.95;96727.41;4947968;28;20105;-64
2021/01/22 03:24:43;;;;;;;1999.90;999.90;;;;;;;8.26;71.43;96714.25;4942108;29;20116;-64
2021/01/22 03:27:10;;;;;;;1999.90;999.90;;;;;;;8.60;70.38;96717.56;4949640;29;20050;-65
2021/01/22 03:29:36;;;;;;;1999.90;999.90;;;;;;;8.57;70.07;96718.28;4933523;29;20059;-64
2021/01/22 03:32:04;;;;;;;1999.90;999.90;;;;;;;8.64;69.68;96718.47;4941972;29;20453;-66
2021/01/22 03:34:31;;;;;;;1999.90;999.90;;;;;;;8.41;70.19;96705.25;4938967;29;20079;-67
2021/01/22 03:36:58;;;;;;;1999.90;999.90;;;;;;;8.52;69.95;96707.53;4945761;29;20055;-64
2021/01/22 03:39:25;;;;;;;1999.90;999.90;;;;;;;8.48;70.46;96709.38;4935688;29;20224;-64
2021/01/22 03:41:52;;;;;;;1999.90;999.90;;;;;;;8.72;69.47;96703.72;4948251;28;20039;-64
2021/01/22 03:44:19;;;;;;;1999.90;999.90;;;;;;;8.74;69.20;96706.94;4941349;29;20484;-64
2021/01/22 03:46:47;;;;;;;1999.90;999.90;;;;;;;8.52;70.01;96699.28;4939345;29;20062;-64
2021/01/22 03:49:13;;;;;;;1999.90;999.90;;;;;;;8.57;70.07;96690.75;4944862;29;20567;-64
2021/01/22 03:51:40;;;;;;;1999.90;999.90;;;;;;;8.65;69.77;96689.78;4939539;29;20048;-64
2021/01/22 03:54:06;;;;;;;1999.90;999.90;;;;;;;8.60;69.58;96690.03;4939491;29;20055;-64
2021/01/22 03:56:32;;;;;;;1999.90;999.90;;;;;;;8.74;69.39;96684.91;4935089;29;20067;-64
2021/01/22 03:58:58;;;;;;;1999.90;999.90;;;;;;;8.63;69.79;96684.63;4947904;29;20057;-64
2021/01/22 04:01:25;;;;;;;1999.90;999.90;;;;;;;8.57;70.35;96690.75;4944186;29;20283;-64
2021/01/22 04:03:51;;;;;;;1999.90;999.90;;;;;;;8.80;69.40;96680.72;4938532;29;20058;-64
2021/01/22 04:06:17;;;;;;;1999.90;999.90;;;;;;;8.62;70.15;96652.72;4940208;29;20047;-64
2021/01/22 04:08:44;;;;;;;1999.90;999.90;;;;;;;8.45;71.04;96656.59;4943969;29;20047;-64
2021/01/22 04:11:10;;;;;;;1999.90;999.90;;;;;;;8.42;70.90;96656.47;4941195;29;20051;-64
2021/01/22 04:13:37;;;;;;;1999.90;999.90;;;;;;;8.60;70.20;96656.97;4942487;29;20056;-64
2021/01/22 04:16:03;;;;;;;1999.90;999.90;;;;;;;8.41;70.97;96641.91;4935808;29;20047;-64
2021/01/22 04:18:30;;;;;;;1999.90;999.90;;;;;;;8.42;71.10;96642.69;4946544;29;20089;-64
2021/01/22 04:20:56;;;;;;;1999.90;999.90;;;;;;;8.18;71.82;96633.41;4941780;29;20054;-64
2021/01/22 04:23:22;;;;;;;1999.90;999.90;;;;;;;7.79;73.68;96616.63;4945129;29;20428;-64
2021/01/22 04:25:49;;;;;;;1999.90;999.90;;;;;;;7.92;73.61;96606.38;4941617;29;20639;-64
2021/01/22 04:28:15;;;;;;;1999.90;999.90;;;;;;;7.86;73.80;96602.25;4947847;28;20055;-64
2021/01/22 04:30:42;;;;;;;1999.90;999.90;;;;;;;7.61;75.37;96583.09;4942367;29;20060;-66
2021/01/22 04:33:08;;;;;;;1999.90;999.90;;;;;;;7.63;75.10;96569.78;4943504;29;20047;-67
2021/01/22 04:35:34;;;;;;;1999.90;999.90;;;;;;;7.55;75.71;96557.00;4945910;29;20047;-67
2021/01/22 04:38:01;;;;;;;1999.90;999.90;;;;;;;7.81;75.10;96561.22;4939886;29;20054;-67
2021/01/22 04:40:27;;;;;;;1999.90;999.90;;;;;;;7.94;74.47;96569.06;4941389;29;20059;-65
2021/01/22 04:42:53;;;;;;;1999.90;999.90;;;;;;;8.19;73.46;96576.41;4940744;29;20099;-66
2021/01/22 04:45:19;;;;;;;1999.90;999.90;;;;;;;8.16;73.74;96572.41;4933878;29;20056;-66
2021/01/22 04:47:46;;;;;;;1999.90;999.90;;;;;;;8.49;72.66;96573.28;4942584;29;20051;-65
2021/01/22 04:50:15;;;;;;;1999.90;999.90;;;;;;;8.27;72.94;96567.97;4936378;29;20059;-66
2021/01/22 04:52:44;;;;;;;1999.90;999.90;;;;;;;8.45;72.59;96584.97;4940508;29;20556;-66
2021/01/22 04:55:15;;;;;;;1999.90;999.90;;;;;;;8.70;71.83;96590.31;4943517;29;20048;-66
2021/01/22 04:57:50;;;;;;;1999.90;999.90;;;;;;;8.93;70.85;96601.50;4936928;29;20059;-66
2021/01/22 05:00:16;;;;;;;1999.90;999.90;;;;;;;9.30;69.44;96603.94;4940807;29;20055;-66
2021/01/22 05:02:42;;;;;;;1999.90;999.90;;;;;;;9.59;68.35;96610.06;4942349;29;20512;-66
2021/01/22 05:05:09;;;;;;;1999.90;999.90;;;;;;;9.21;68.89;96616.31;4949440;28;20412;-66
2021/01/22 05:07:36;;;;;;;1999.90;999.90;;;;;;;8.74;70.63;96605.00;4940855;29;20055;-66
2021/01/22 05:10:03;;;;;;;1999.90;999.90;;;;;;;9.10;70.13;96616.06;4944269;29;20089;-66
2021/01/22 05:12:37;;;;;;;1999.90;999.90;;;;;;;9.33;69.03;96610.69;4941113;29;20438;-66
2021/01/22 05:15:24;;;;;;;1999.90;999.90;;;;;;;9.38;68.75;96599.38;4942591;29;20105;-66
2021/01/22 05:17:54;;;;;;;1999.90;999.90;;;;;;;9.12;69.56;96603.50;4937078;29;20509;-66
2021/01/22 05:20:31;;;;;;;1999.90;999.90;;;;;;;8.29;72.66;96598.72;4944036;29;20047;-66
2021/01/22 05:23:04;;;;;;;1999.90;999.90;;;;;;;7.89;74.87;96596.03;4947387;29;20149;-66
2021/01/22 05:25:31;;;;;;;1999.90;999.90;;;;;;;8.49;72.86;96596.09;4945808;29;20059;-66
2021/01/22 05:27:58;;;;;;;1999.90;999.90;;;;;;;8.83;71.72;96588.28;4948698;28;20051;-66
2021/01/22 05:30:27;;;;;;;1999.90;999.90;;;;;;;8.72;71.44;96588.00;4934344;29;20059;-66
2021/01/22 05:33:16;;;;;;;1999.90;999.90;;;;;;;8.51;72.22;96584.72;4940247;29;20420;-66
2021/01/22 05:35:42;;;;;;;1999.90;999.90;;;;;;;8.21;73.61;96585.09;4937670;29;20062;-66
2021/01/22 05:38:09;;;;;;;1999.90;999.90;;;;;;;8.01;74.01;96571.22;4942230;29;20074;-66
2021/01/22 05:40:35;;;;;;;1999.90;999.90;;;;;;;8.19;74.07;96573.66;4941551;29;20546;-66
2021/01/22 05:43:02;;;;;;;1999.90;999.90;;;;;;;8.23;73.82;96564.34;4944483;29;20043;-66
2021/01/22 05:45:45;;;;;;;1999.90;999.90;;;;;;;8.40;73.21;96570.66;4942422;29;20051;-66
2021/01/22 05:48:18;;;;;;;1999.90;999.90;;;;;;;8.25;74.24;96566.75;4932251;29;20496;-66
2021/01/22 05:50:49;;;;;;;1999.90;999.90;;;;;;;8.43;73.31;96579.00;4934888;29;20052;-66
2021/01/22 05:53:17;;;;;;;1999.90;999.90;;;;;;;8.22;74.01;96576.50;4936436;28;20122;-66
2021/01/22 05:55:43;;;;;;;1999.90;999.90;;;;;;;8.31;73.37;96573.56;4937964;29;20051;-66
2021/01/22 05:58:09;;;;;;;1999.90;999.90;;;;;;;8.58;73.03;96576.63;4940049;29;20547;-66
2021/01/22 06:00:36;;;;;;;1999.90;999.90;;;;;;;8.49;73.09;96576.03;4936701;29;20420;-66
2021/01/22 06:03:21;;;;;;;1999.90;999.90;;;;;;;8.50;73.00;96567.41;4937914;29;20043;-65
2021/01/22 06:05:53;;;;;;;1999.90;999.90;;;;;;;8.41;73.14;96566.72;4935533;29;20058;-66
2021/01/22 06:08:20;;;;;;;1999.90;999.90;;;;;;;7.91;75.18;96560.72;4942429;29;20390;-66
2021/01/22 06:10:47;;;;;;;1999.90;999.90;;;;;;;7.67;76.25;96562.44;4936453;29;20056;-65
2021/01/22 06:13:22;;;;;;;1999.90;999.90;;;;;;;7.75;76.82;96563.44;4941091;29;20048;-65
2021/01/22 06:15:49;;;;;;;1999.90;999.90;;;;;;;7.54;77.49;96552.63;4939035;29;20058;-66
2021/01/22 06:18:19;;;;;;;1999.90;999.90;;;;;;;7.98;76.04;96555.41;4936390;29;20055;-66
2021/01/22 06:20:47;;;;;;;1999.90;999.90;;;;;;;7.93;76.10;96559.22;4926028;29;20066;-65
2021/01/22 06:23:14;;;;;;;1999.90;999.90;;;;;;;7.94;76.29;96562.78;4941001;29;20047;-66
2021/01/22 06:25:42;;;;;;;1999.90;999.90;;;;;;;7.61;77.51;96563.84;4940655;29;20508;-65
2021/01/22 06:28:12;;;;;;;1999.90;999.90;;;;;;;7.84;76.84;96575.06;4941794;28;20051;-65
2021/01/22 06:30:42;;;;;;;1999.90;999.90;;;;;;;8.06;76.05;96568.22;4939635;29;20070;-65
2021/01/22 06:33:09;;;;;;;1999.90;999.90;;;;;;;7.83;76.54;96576.25;4941478;28;20416;-65
2021/01/22 06:35:36;;;;;;;1999.90;999.90;;;;;;;8.10;75.89;96580.13;4937457;29;20057;-65
2021/01/22 06:38:04;;;;;;;1999.90;999.90;;;;;;;8.18;75.29;96567.34;4939630;29;20063;-65
2021/01/22 06:40:30;;;;;;;1999.90;999.90;;;;;;;8.11;75.73;96573.47;4941615;28;20075;-65
2021/01/22 06:42:56;;;;;;;1999.90;999.90;;;;;;;8.11;75.74;96576.22;4935052;28;20102;-65
2021/01/22 06:45:24;;;;;;;1999.90;999.90;;;;;;;8.13;75.86;96577.81;4937923;28;20059;-66
2021/01/22 06:47:57;;;;;;;1999.90;999.90;;;;;;;8.14;75.23;96574.69;4934916;28;20051;-66
2021/01/22 06:50:26;;;;;;;1999.90;999.90;;;;;;;7.96;76.30;96584.44;4935783;28;20062;-65
2021/01/22 06:53:11;;;;;;;1999.90;999.90;;;;;;;8.08;75.89;96582.44;4936500;28;20044;-65
2021/01/22 06:55:49;;;;;;;1999.90;999.90;;;;;;;8.07;75.68;96586.34;4937009;29;20059;-65
2021/01/22 06:58:25;;;;;;;1999.90;999.90;;;;;;;8.13;75.53;96577.81;4938203;29;20047;-65
2021/01/22 07:00:55;;;;;;;1999.90;999.90;;;;;;;8.03;75.70;96577.16;4939963;29;20059;-65
2021/01/22 07:03:36;;;;;;;1999.90;999.90;;;;;;;7.82;77.15;96573.84;4940426;29;20050;-65
2021/01/22 07:06:24;;;;;;;1999.90;999.90;;;;;;;7.88;76.55;96577.94;4940224;29;20059;-65
2021/01/22 07:08:55;;;;;;;1999.90;999.90;;;;;;;7.84;77.00;96577.81;4926723;29;20051;-65
2021/01/22 07:11:25;;;;;;;1999.90;999.90;;;;;;;8.14;75.89;96573.91;4937464;29;20102;-65
2021/01/22 07:13:52;;;;;;;1999.90;999.90;;;;;;;8.09;76.06;96573.00;4940616;28;20075;-65
2021/01/22 07:16:18;;;;;;;1999.90;999.90;;;;;;;8.44;74.88;96583.41;4939512;28;20127;-65
2021/01/22 07:19:01;;;;;;;1999.90;999.90;;;;;;;8.20;75.66;96578.00;4940019;29;20055;-66
2021/01/22 07:21:29;;;;;;;1999.90;999.90;;;;;;;8.38;74.97;96579.28;4940440;29;20103;-65
2021/01/22 07:24:01;;;;;;;1999.90;999.90;;;;;;;8.45;74.67;96589.69;4944351;29;20492;-66
2021/01/22 07:26:36;;;;;;;1999.90;999.90;;;;;;;8.36;74.70;96587.06;4942446;29;20051;-66
2021/01/22 07:29:21;;;;;;;1999.90;999.90;;;;;;;8.30;75.13;96580.22;4944985;29;20079;-66
2021/01/22 07:31:49;;;;;;;1999.90;999.90;;;;;;;8.50;74.54;96585.88;4939982;29;20401;-66
2021/01/22 07:34:43;;;;;;;1999.90;999.90;;;;;;;8.68;74.28;96576.09;4942641;28;20166;-66
2021/01/22 07:37:25;;;;;;;1999.90;999.90;;;;;;;8.52;74.37;96580.81;4941234;29;20059;-65
2021/01/22 07:39:53;;;;;;;1999.90;999.90;;;;;;;8.70;73.75;96584.81;4940387;29;20050;-65
2021/01/22 07:42:22;;;;;;;1999.90;999.90;;;;;;;8.84;73.27;96594.56;4939473;29;20054;-65
2021/01/22 07:44:50;;;;;;;1999.90;999.90;;;;;;;8.92;72.72;96594.41;4940759;29;20053;-66
2021/01/22 07:47:24;;;;;;;1999.90;999.90;;;;;;;8.94;72.34;96600.34;4942229;29;20055;-66
2021/01/22 07:49:58;;;;;;;1999.90;999.90;;;;;;;9.39;71.33;96608.44;4939767;29;20516;-65
2021/01/22 07:52:25;;;;;;;1999.90;999.90;;;;;;;9.44;70.85;96613.69;4943989;29;20051;-66
2021/01/22 07:54:52;;;;;;;1999.90;999.90;;;;;;;9.55;70.21;96616.69;4940550;29;20235;-66
2021/01/22 07:57:26;;;;;;;1999.90;999.90;;;;;;;9.55;70.51;96617.47;4936968;29;20301;-66
2021/01/22 07:59:53;;;;;;;1999.90;999.90;;;;;;;9.40;70.31;96632.13;4943745;28;20570;-66
2021/01/22 08:02:21;;;;;;;1999.90;999.90;;;;;;;9.62;69.81;96634.19;4942795;29;20054;-66
2021/01/22 08:05:01;;;;;;;1999.90;999.90;;;;;;;9.94;68.74;96633.25;4937404;29;21103;-66
2021/01/22 08:07:32;;;;;;;1999.90;999.90;;;;;;;9.94;68.63;96633.25;4941644;29;20656;-66
2021/01/22 08:09:58;;;;;;;1999.90;999.90;;;;;;;10.07;68.47;96636.69;4941391;29;20544;-66
2021/01/22 08:12:24;;;;;;;1999.90;999.90;;;;;;;10.05;68.62;96628.78;4940186;29;20059;-67
2021/01/22 08:14:51;;;;;;;1999.90;999.90;;;;;;;9.90;69.24;96626.84;4942903;28;20141;-64
2021/01/22 08:17:18;;;;;;;1999.90;999.90;;;;;;;10.12;68.52;96626.13;4940464;29;20047;-66
2021/01/22 08:19:45;;;;;;;1999.90;999.90;;;;;;;10.28;67.98;96626.03;4938778;29;20643;-65
2021/01/22 08:22:16;;;;;;;1999.90;999.90;;;;;;;10.37;67.75;96634.91;4926240;28;20043;-66
2021/01/22 08:24:50;;;;;;;1999.90;999.90;;;;;;;10.59;67.24;96629.81;4941783;29;20047;-65
2021/01/22 08:27:21;;;;;;;1999.90;999.90;;;;;;;10.64;67.02;96629.47;4939810;28;20059;-65
2021/01/22 08:29:48;;;;;;;1999.90;999.90;;;;;;;10.63;67.03;96625.13;4931621;29;20055;-65
2021/01/22 08:32:17;;;;;;;1999.90;999.90;;;;;;;10.57;67.34;96627.41;4942119;29;20046;-66
2021/01/22 08:34:45;;;;;;;1999.90;999.90;;;;;;;10.64;66.74;96620.41;4939067;29;20063;-65
2021/01/22 08:37:13;;;;;;;1999.90;999.90;;;;;;;10.76;66.41;96636.78;4941565;29;20055;-65
2021/01/22 08:39:59;;;;;;;1999.90;999.90;;;;;;;10.77;66.94;96638.41;4942304;29;20106;-65
2021/01/22 08:42:26;;;;;;;1999.90;999.90;;;;;;;10.44;67.28;96639.78;4935251;29;20270;-65
2021/01/22 08:44:57;;;;;;;1999.90;999.90;;;;;;;10.63;67.30;96646.44;4943255;29;20508;-65
2021/01/22 08:47:29;;;;;;;1999.90;999.90;;;;;;;10.96;65.75;96643.06;4939145;29;20138;-65
2021/01/22 08:49:58;;;;;;;1999.90;999.90;;;;;;;10.61;66.54;96649.56;4940392;29;20055;-65
2021/01/22 08:52:25;;;;;;;1999.90;999.90;;;;;;;10.28;68.52;96650.13;4941138;29;20456;-65
2021/01/22 08:54:54;;;;;;;1999.90;999.90;;;;;;;10.75;66.99;96649.81;4943876;29;20105;-65
2021/01/22 08:57:21;;;;;;;1999.90;999.90;;;;;;;10.65;66.69;96633.06;4944141;29;20212;-65
2021/01/22 08:59:53;;;;;;;1999.90;999.90;;;;;;;10.79;66.61;96638.03;4940792;28;20050;-65
2021/01/22 09:02:44;;;;;;;1999.90;999.90;;;;;;;11.28;65.40;96638.06;4947692;28;20372;-65
2021/01/22 09:05:13;;;;;;;1999.90;999.90;;;;;;;11.45;64.49;96641.47;4943512;29;20102;-65
2021/01/22 09:07:40;;;;;;;1999.90;999.90;;;;;;;11.37;64.66;96639.75;4939301;29;20059;-65
2021/01/22 09:10:29;;;;;;;1999.90;999.90;;;;;;;11.25;65.38;96638.81;4940129;29;20059;-65
2021/01/22 09:13:08;;;;;;;1999.90;999.90;;;;;;;11.41;64.93;96646.16;4941947;29;20074;-65
2021/01/22 09:15:35;;;;;;;1999.90;999.90;;;;;;;10.86;66.04;96652.78;4935252;28;20059;-65
2021/01/22 09:18:02;;;;;;;1999.90;999.90;;;;;;;11.08;66.12;96642.09;4940829;28;20051;-65
2021/01/22 09:20:32;;;;;;;1999.90;999.90;;;;;;;10.80;66.65;96640.44;4939624;29;20066;-65
2021/01/22 09:23:05;;;;;;;1999.90;999.90;;;;;;;10.88;66.25;96642.16;4940939;29;20114;-65
2021/01/22 09:25:31;;;;;;;1999.90;999.90;;;;;;;10.97;66.40;96646.63;4938099;29;20060;-65
2021/01/22 09:27:57;;;;;;;1999.90;999.90;;;;;;;11.54;65.09;96642.00;4943237;29;20059;-65
2021/01/22 09:30:27;;;;;;;1999.90;999.90;;;;;;;11.56;64.54;96641.63;4940185;29;20055;-65
2021/01/22 09:32:56;;;;;;;1999.90;999.90;;;;;;;11.55;64.17;96649.13;4936830;29;20580;-65
2021/01/22 09:35:24;;;;;;;1999.90;999.90;;;;;;;11.66;63.98;96635.44;4941911;28;20042;-65
2021/01/22 09:37:51;;;;;;;1999.90;999.90;;;;;;;11.47;64.57;96632.78;4941133;29;20051;-65
2021/01/22 09:40:19;;;;;;;1999.90;999.90;;;;;;;11.68;63.88;96621.22;4938507;28;20055;-65
2021/01/22 09:42:45;;;;;;;1999.90;999.90;;;;;;;11.93;63.48;96619.59;4938507;28;20297;-65
2021/01/22 09:45:12;;;;;;;1999.90;999.90;;;;;;;11.67;63.61;96628.72;4941484;28;20058;-65
2021/01/22 09:47:39;;;;;;;1999.90;999.90;;;;;;;11.54;64.04;96630.13;4939828;29;20047;-65
2021/01/22 09:50:07;;;;;;;1999.90;999.90;;;;;;;11.72;64.04;96628.38;4942070;29;20318;-65
2021/01/22 09:52:36;;;;;;;1999.90;999.90;;;;;;;11.34;65.09;96634.97;4941050;29;20047;-65
2021/01/22 09:55:07;;;;;;;1999.90;999.90;;;;;;;11.54;64.70;96639.22;4939661;29;20047;-65
2021/01/22 09:57:33;;;;;;;1999.90;999.90;;;;;;;11.28;65.05;96631.72;4935240;29;20069;-65
2021/01/22 09:59:59;;;;;;;1999.90;999.90;;;;;;;11.17;65.86;96631.56;4941708;29;20058;-65
2021/01/22 10:02:26;;;;;;;1999.90;999.90;;;;;;;11.28;65.45;96629.75;4940915;29;20075;-65
2021/01/22 10:04:53;;;;;;;1999.90;999.90;;;;;;;11.58;64.70;96634.53;4939203;29;20138;-65
2021/01/22 10:07:19;;;;;;;1999.90;999.90;;;;;;;11.36;65.42;96632.59;4938467;29;20054;-65
2021/01/22 10:09:45;;;;;;;1999.90;999.90;;;;;;;11.53;64.88;96623.78;4941651;29;20055;-65
2021/01/22 10:12:13;;;;;;;1999.90;999.90;;;;;;;11.44;65.10;96618.50;4942161;29;20055;-65
2021/01/22 10:14:40;;;;;;;1999.90;999.90;;;;;;;11.42;65.33;96617.31;4938980;29;20562;-64
2021/01/22 10:17:07;;;;;;;1999.90;999.90;;;;;;;11.55;65.03;96612.31;4937613;29;20106;-65
2021/01/22 10:19:33;;;;;;;1999.90;999.90;;;;;;;11.42;65.10;96618.09;4937032;29;20066;-65
2021/01/22 10:21:59;;;;;;;1999.90;999.90;;;;;;;11.40;65.70;96605.78;4941717;29;20134;-64
2021/01/22 10:24:26;;;;;;;1999.90;999.90;;;;;;;11.29;65.53;96611.19;4941886;29;20047;-64
2021/01/22 10:26:52;;;;;;;1999.90;999.90;;;;;;;11.14;66.06;96615.69;4942917;28;20055;-64
2021/01/22 10:29:18;;;;;;;1999.90;999.90;;;;;;;11.18;66.06;96616.56;4934041;28;20393;-64
2021/01/22 10:31:44;;;;;;;1999.90;999.90;;;;;;;10.89;66.83;96623.59;4933898;29;20055;-63
2021/01/22 10:34:11;;;;;;;1999.90;999.90;;;;;;;10.77;67.54;96616.28;4942269;28;20046;-64
2021/01/22 10:36:38;;;;;;;1999.90;999.90;;;;;;;10.64;68.33;96621.19;4938900;29;20274;-64
2021/01/22 10:39:05;;;;;;;1999.90;999.90;;;;;;;10.83;67.47;96612.03;4938133;28;20149;-65
2021/01/22 10:41:32;;;;;;;1999.90;999.90;;;;;;;11.10;66.66;96615.66;4940808;28;20533;-65
2021/01/22 10:43:58;;;;;;;1999.90;999.90;;;;;;;11.12;66.34;96614.47;4936800;29;20051;-65
2021/01/22 10:46:25;;;;;;;1999.90;999.90;;;;;;;11.16;66.80;96616.13;4941341;29;20059;-65
2021/01/22 10:48:51;;;;;;;1999.90;999.90;;;;;;;11.16;66.77;96618.88;4939811;29;20059;-65
2021/01/22 10:51:17;;;;;;;1999.90;999.90;;;;;;;11.25;66.41;96622.22;4940447;28;20103;-64
2021/01/22 10:53:44;;;;;;;1999.90;999.90;;;;;;;11.34;66.00;96621.13;4941738;29;20059;-65
2021/01/22 10:56:11;;;;;;;1999.90;999.90;;;;;;;11.25;66.32;96627.75;4941318;28;20108;-65
2021/01/22 10:58:38;;;;;;;1999.90;999.90;;;;;;;11.02;67.17;96621.44;4941867;29;20444;-65
2021/01/22 11:01:04;;;;;;;1999.90;999.90;;;;;;;11.34;66.55;96621.13;4928342;29;20082;-65
2021/01/22 11:03:32;;;;;;;1999.90;999.90;;;;;;;11.59;65.09;96624.25;4936494;28;20469;-65
2021/01/22 11:05:59;;;;;;;1999.90;999.90;;;;;;;11.37;66.28;96617.63;4936890;29;20568;-65
2021/01/22 11:08:25;;;;;;;1999.90;999.90;;;;;;;11.53;65.43;96618.25;4935804;29;20070;-65
2021/01/22 11:10:51;;;;;;;1999.90;999.90;;;;;;;11.54;65.36;96619.06;4936407;29;20070;-65